RUNWAY INFORMATION
Runway Length Width Elevation Displaced
Threshold
Heading | Runway Length Width Elevation Displaced
Threshold
Heading
13 5902 ft 98 ft 268 ft 0 ft 118 | 31 5902 ft 98 ft 252 ft 0 ft 298

 AIRPORT FREQUENCIES
Type AFIS Name AFIS Frequency 124.85 MHZ

 AIRPORT NEAR NAVIGATION AIDS
Type NDB Name Myggenes Frequency 337 KHZ
Type NDB Name Nolso Frequency 404 KHZ
Type NDB Name Vagar Frequency 348 KHZ

 METAR AND TAF INFORMATION
METAR FOR EKVG
ADDS - METARS form results

(1336 UTC 25 June 2021)
Data provider http://aviationweather.gov/metar/data/
 
METAR text: EKVG 251320Z AUTO 28011KT 9999 FEW230/// 12/08 Q1027
Conditions at: EKVG (SORVAAG/VAGAR , DK) observed 1320 UTC 25 June 2021
Temperature: 12.0°C (54°F)
Dewpoint: 8.0°C (46°F) [RH = 76%]
Pressure (altimeter): 30.32 inches Hg (1027.0 mb)
Winds: from the W (280 degrees) at 13 MPH (11 knots; 5.7 m/s)
Visibility: 6 or more miles (10+ km)
Ceiling: at least 12,000 feet AGL
Clouds: few clouds at 23000 feet AGL
Weather: no significant weather observed at this time

METAR text: EKVG 251250Z AUTO 28013KT 9999 FEW230/// 12/09 Q1027
Conditions at: EKVG (SORVAAG/VAGAR , DK) observed 1250 UTC 25 June 2021
Temperature: 12.0°C (54°F)
Dewpoint: 9.0°C (48°F) [RH = 82%]
Pressure (altimeter): 30.32 inches Hg (1027.0 mb)
Winds: from the W (280 degrees) at 15 MPH (13 knots; 6.7 m/s)
Visibility: 6 or more miles (10+ km)
Ceiling: at least 12,000 feet AGL
Clouds: few clouds at 23000 feet AGL
Weather: no significant weather observed at this time

Forecast for: EKVG (SORVAAG/VAGAR , DK)
Text: TAF EKVG 251112Z 2512/2521 27010KT CAVOK
Forecast period: 1200 to 1600 UTC 25 June 2021
Forecast type: FROM: standard forecast or significant change
Winds: from the W (270 degrees) at 12 MPH (10 knots; 5.1 m/s)
Visibility: 6 or more miles (10+ km)
Ceiling: unknown
Clouds: missing
Weather: NSW  (no significant weather)
Text: BECMG 2516/2518 9999 SCT018
Forecast period: 1600 to 2100 UTC 25 June 2021
Forecast type: BECOMING: Conditions expected to become as follows by 1800 UTC 25 June 2021
Winds: from the W (270 degrees) at 12 MPH (10 knots; 5.1 m/s)
Visibility: 6 or more miles (10+ km)
Ceiling: at least 12,000 feet AGL
Clouds: scattered clouds at 1800 feet AGL
Weather: NSW  (no significant weather)



© 2013 - 2021, FlightSimLog.org - Powered by Virtual Airlines Manager